Aberdeen, California
Current Conditions -  °F | °C
As of 8:56 PM on Wednesday 22 Oct 2014 (Local Time) from KBIH Reporting Station
Clear Clear  
Wind Chill: 64°   Ceiling: Unl
Heat Index: 64°   Visibility: 10mi
Dew Point: 25°   Wind: 10mph
Humidity: 23%   Direction: 180°S
Pressure: 30.07"   Gusts: NA
Location:  36.9237°N, 117.897°W
Report Text: KBIH 230356Z AUTO 18009KT 10SM CLR 18/M04 A3007 RMK AO2 SLP151 T01781039
Loading
Personal Weather Stations






























Interactive Weather Map
Tropical Storm Tracking
New forecast layout! Learn more

10-Day Weather Forecast

Advertisements
Track Severe Weather on mobile